Time;durP1;ratioP1;P1;durP2;ratioP2;P2;SDS_P1;SDS_P2;PMS_P1;PMS_P2;Temp;Humidity;BMP_temperature;BMP_pressure;BME280_temperature;BME280_humidity;BME280_pressure;Samples;Min_cycle;Max_cycle;Signal;HPM_P1;HPM_P2
2022/10/20 00:00:01;;;;;;;0.00;0.00;;;;;;;9.97;100.00;98886.69;4844808;29;20298;-62
2022/10/20 00:02:28;;;;;;;0.00;0.00;;;;;;;9.97;100.00;98881.47;4850402;29;20251;-62
2022/10/20 00:04:54;;;;;;;0.00;0.00;;;;;;;9.98;100.00;98877.91;4851019;29;20243;-62
2022/10/20 00:07:22;;;;;;;0.00;0.00;;;;;;;9.99;100.00;98883.00;4848898;29;20295;-62
2022/10/20 00:09:49;;;;;;;0.00;0.00;;;;;;;9.98;100.00;98883.97;4849082;29;20729;-62
2022/10/20 00:12:15;;;;;;;0.00;0.00;;;;;;;9.98;100.00;98888.34;4847256;29;20232;-62
2022/10/20 00:14:42;;;;;;;0.00;0.00;;;;;;;9.97;100.00;98873.66;4852113;29;20252;-62
2022/10/20 00:17:09;;;;;;;0.00;0.00;;;;;;;9.94;100.00;98868.72;4849374;29;20794;-62
2022/10/20 00:19:35;;;;;;;0.00;0.00;;;;;;;9.91;100.00;98864.63;4852059;29;20290;-62
2022/10/20 00:22:02;;;;;;;0.00;0.00;;;;;;;9.93;100.00;98859.25;4846609;29;20380;-62
2022/10/20 00:24:29;;;;;;;0.00;0.00;;;;;;;9.93;100.00;98849.66;4851444;29;20256;-62
2022/10/20 00:26:56;;;;;;;0.00;0.00;;;;;;;9.94;100.00;98846.09;4852461;29;20240;-62
2022/10/20 00:29:23;;;;;;;0.00;0.00;;;;;;;9.87;100.00;98832.78;4848652;29;20255;-61
2022/10/20 00:31:49;;;;;;;0.00;0.00;;;;;;;9.85;100.00;98834.72;4849755;29;20300;-62
2022/10/20 00:34:16;;;;;;;0.00;0.00;;;;;;;9.84;100.00;98830.47;4848238;29;20290;-62
2022/10/20 00:36:42;;;;;;;0.00;0.00;;;;;;;9.87;100.00;98826.75;4851934;29;20579;-62
2022/10/20 00:39:09;;;;;;;0.00;0.00;;;;;;;9.97;100.00;98813.69;4849102;29;20726;-62
2022/10/20 00:41:37;;;;;;;0.00;0.00;;;;;;;10.00;100.00;98810.78;4849682;29;20247;-62
2022/10/20 00:44:42;;;;;;;0.00;0.00;;;;;;;9.99;100.00;98802.16;4842738;29;20283;-62
2022/10/20 00:47:10;;;;;;;0.00;0.00;;;;;;;9.96;100.00;98799.00;4847579;29;20726;-62
2022/10/20 00:49:37;;;;;;;0.00;0.00;;;;;;;9.94;100.00;98788.72;4848046;29;20297;-62
2022/10/20 00:52:04;;;;;;;0.00;0.00;;;;;;;9.95;100.00;98784.31;4847645;29;20243;-62
2022/10/20 00:54:31;;;;;;;0.00;0.00;;;;;;;9.95;100.00;98786.94;4854722;29;20290;-62
2022/10/20 00:57:00;;;;;;;0.00;0.00;;;;;;;10.05;100.00;98790.31;4852188;29;20294;-62
2022/10/20 00:59:29;;;;;;;0.00;0.00;;;;;;;10.06;100.00;98784.16;4853222;29;20274;-62
2022/10/20 01:01:57;;;;;;;0.00;0.00;;;;;;;10.04;100.00;98789.53;4854391;29;20699;-62
2022/10/20 01:04:24;;;;;;;0.00;0.00;;;;;;;10.03;100.00;98792.25;4853197;29;20246;-62
2022/10/20 01:06:51;;;;;;;0.00;0.00;;;;;;;10.02;100.00;98791.44;4855139;29;20239;-62
2022/10/20 01:09:18;;;;;;;0.00;0.00;;;;;;;10.09;100.00;98783.03;4852057;29;20698;-62
2022/10/20 01:11:54;;;;;;;0.00;0.00;;;;;;;10.12;100.00;98780.13;4854903;29;20299;-62
2022/10/20 01:14:32;;;;;;;0.00;0.00;;;;;;;10.14;100.00;98778.19;4863827;29;20239;-62
2022/10/20 01:17:08;;;;;;;0.00;0.00;;;;;;;10.10;100.00;98771.63;4851317;29;20234;-62
2022/10/20 01:20:00;;;;;;;0.00;0.00;;;;;;;10.11;100.00;98774.09;4853842;29;20305;-62
2022/10/20 01:22:40;;;;;;;0.00;0.00;;;;;;;10.10;100.00;98780.28;4851379;29;20695;-62
2022/10/20 01:25:17;;;;;;;0.00;0.00;;;;;;;10.08;100.00;98781.38;4847974;29;20242;-62
2022/10/20 01:27:46;;;;;;;0.00;0.00;;;;;;;10.01;100.00;98779.38;4854821;29;20901;-62
2022/10/20 01:30:16;;;;;;;0.00;0.00;;;;;;;10.00;100.00;98769.06;4850984;29;20390;-62
2022/10/20 01:33:08;;;;;;;0.00;0.00;;;;;;;10.00;100.00;98782.09;4854302;29;20243;-62
2022/10/20 01:35:43;;;;;;;0.00;0.00;;;;;;;10.00;100.00;98782.94;4851979;29;20695;-63
2022/10/20 01:38:19;;;;;;;0.00;0.00;;;;;;;10.01;100.00;98774.16;4852084;29;20239;-62
2022/10/20 01:40:52;;;;;;;0.00;0.00;;;;;;;9.98;100.00;98761.41;4854810;29;20602;-62
2022/10/20 01:43:24;;;;;;;0.00;0.00;;;;;;;9.97;100.00;98764.97;4851792;29;20715;-62
2022/10/20 01:45:53;;;;;;;0.00;0.00;;;;;;;9.99;100.00;98776.09;4854049;29;20239;-62
2022/10/20 01:48:25;;;;;;;0.00;0.00;;;;;;;9.98;100.00;98784.03;4848190;29;20240;-62
2022/10/20 01:50:52;;;;;;;0.00;0.00;;;;;;;10.03;100.00;98774.00;4853632;29;20747;-62
2022/10/20 01:53:20;;;;;;;0.00;0.00;;;;;;;10.03;100.00;98772.22;4849931;29;20306;-62
2022/10/20 01:55:50;;;;;;;0.00;0.00;;;;;;;10.02;100.00;98772.34;4853558;29;20300;-62
2022/10/20 01:58:49;;;;;;;0.00;0.00;;;;;;;10.01;100.00;98770.72;4850417;29;20277;-62
2022/10/20 02:01:26;;;;;;;0.00;0.00;;;;;;;9.98;100.00;98777.06;4851607;29;20726;-62
2022/10/20 02:03:54;;;;;;;0.00;0.00;;;;;;;9.97;100.00;98775.41;4864579;29;20243;-62
2022/10/20 02:06:33;;;;;;;0.00;0.00;;;;;;;9.95;100.00;98761.69;4849323;29;20316;-62
2022/10/20 02:09:03;;;;;;;0.00;0.00;;;;;;;9.96;100.00;98759.88;4851068;29;20237;-62
2022/10/20 02:11:41;;;;;;;0.00;0.00;;;;;;;9.95;100.00;98755.63;4854798;29;20318;-62
2022/10/20 02:14:12;;;;;;;0.00;0.00;;;;;;;9.90;100.00;98753.47;4851859;29;20235;-62
2022/10/20 02:16:44;;;;;;;0.00;0.00;;;;;;;9.93;100.00;98745.38;4852082;29;20303;-62
2022/10/20 02:19:14;;;;;;;0.00;0.00;;;;;;;9.87;100.00;98740.72;4851633;29;20313;-62
2022/10/20 02:21:40;;;;;;;0.00;0.00;;;;;;;9.86;100.00;98733.88;4853551;29;20253;-62
2022/10/20 02:24:09;;;;;;;0.00;0.00;;;;;;;9.86;100.00;98731.25;4852552;29;20247;-62
2022/10/20 02:26:39;;;;;;;0.00;0.00;;;;;;;9.87;100.00;98720.66;4852071;29;20631;-62
2022/10/20 02:29:13;;;;;;;0.00;0.00;;;;;;;9.89;100.00;98733.59;4851284;29;20290;-62
2022/10/20 02:31:40;;;;;;;0.00;0.00;;;;;;;9.93;100.00;98728.88;4853163;29;20238;-62
2022/10/20 02:34:08;;;;;;;0.00;0.00;;;;;;;9.96;100.00;98728.59;4849343;29;20587;-62
2022/10/20 02:36:39;;;;;;;0.00;0.00;;;;;;;10.05;100.00;98722.50;4852211;29;20289;-62
2022/10/20 02:39:06;;;;;;;0.00;0.00;;;;;;;10.11;100.00;98732.38;4851818;29;20234;-62
2022/10/20 02:41:33;;;;;;;0.00;0.00;;;;;;;10.15;100.00;98728.50;4851894;29;20250;-62
2022/10/20 02:43:59;;;;;;;0.00;0.00;;;;;;;10.27;100.00;98734.34;4846221;29;20741;-62
2022/10/20 02:46:27;;;;;;;0.00;0.00;;;;;;;10.32;100.00;98742.53;4852380;29;20787;-62
2022/10/20 02:48:54;;;;;;;0.00;0.00;;;;;;;10.33;100.00;98756.44;4852027;29;20240;-61
2022/10/20 02:51:20;;;;;;;0.00;0.00;;;;;;;10.29;100.00;98760.28;4851472;29;20308;-62
2022/10/20 02:53:48;;;;;;;0.00;0.00;;;;;;;10.26;100.00;98771.03;4850704;29;20243;-62
2022/10/20 02:56:15;;;;;;;0.00;0.00;;;;;;;10.26;100.00;98765.81;4850414;29;20257;-62
2022/10/20 02:58:41;;;;;;;0.00;0.00;;;;;;;10.20;100.00;98761.97;4853760;29;20261;-62
2022/10/20 03:01:08;;;;;;;0.00;0.00;;;;;;;10.19;100.00;98769.00;4851159;29;20316;-62
2022/10/20 03:03:36;;;;;;;0.00;0.00;;;;;;;10.17;100.00;98773.53;4851983;29;20275;-62
2022/10/20 03:06:07;;;;;;;0.00;0.00;;;;;;;10.13;100.00;98772.16;4850990;29;20287;-62
2022/10/20 03:08:34;;;;;;;0.00;0.00;;;;;;;10.19;100.00;98782.03;4851685;29;20243;-62
2022/10/20 03:11:00;;;;;;;0.00;0.00;;;;;;;10.15;100.00;98780.69;4850612;29;20244;-62
2022/10/20 03:13:27;;;;;;;0.00;0.00;;;;;;;10.10;100.00;98767.25;4851058;29;20328;-62
2022/10/20 03:15:54;;;;;;;0.00;0.00;;;;;;;10.06;100.00;98763.28;4849448;29;20657;-62
2022/10/20 03:18:20;;;;;;;0.00;0.00;;;;;;;10.06;100.00;98763.28;4849461;29;20313;-62
2022/10/20 03:20:50;;;;;;;0.00;0.00;;;;;;;10.02;100.00;98762.75;4853764;29;20244;-62
2022/10/20 03:23:17;;;;;;;0.00;0.00;;;;;;;9.97;100.00;98753.72;4849529;29;20295;-62
2022/10/20 03:25:43;;;;;;;0.00;0.00;;;;;;;9.95;100.00;98738.22;4853455;29;20295;-62
2022/10/20 03:28:10;;;;;;;0.00;0.00;;;;;;;9.96;100.00;98737.25;4850562;29;20730;-62
2022/10/20 03:33:02;;;;;;;0.00;0.00;;;;;;;9.94;100.00;98710.50;4849928;23;20245;-57
2022/10/20 03:35:29;;;;;;;0.00;0.00;;;;;;;9.93;100.00;98702.81;4831862;29;20238;-60
2022/10/20 03:37:57;;;;;;;0.00;0.00;;;;;;;9.90;100.00;98696.13;4827590;29;20264;-57
2022/10/20 03:40:23;;;;;;;0.00;0.00;;;;;;;9.89;100.00;98682.25;4828147;29;20905;-57
2022/10/20 03:42:50;;;;;;;0.00;0.00;;;;;;;9.92;100.00;98681.16;4827989;29;20242;-59
2022/10/20 03:45:16;;;;;;;0.00;0.00;;;;;;;10.00;100.00;98677.78;4812502;29;20245;-58
2022/10/20 03:47:43;;;;;;;0.00;0.00;;;;;;;10.04;100.00;98679.97;4811960;29;20298;-58
2022/10/20 03:50:10;;;;;;;0.00;0.00;;;;;;;10.14;100.00;98679.06;4809048;29;20262;-58
2022/10/20 03:52:36;;;;;;;0.00;0.00;;;;;;;10.16;100.00;98684.97;4817160;29;21242;-58
2022/10/20 03:55:05;;;;;;;0.00;0.00;;;;;;;10.14;100.00;98687.75;4811598;29;20833;-60
2022/10/20 03:57:32;;;;;;;0.00;0.00;;;;;;;10.15;100.00;98688.53;4816247;29;20568;-58
2022/10/20 03:59:58;;;;;;;0.00;0.00;;;;;;;10.23;100.00;98695.66;4813378;29;20862;-57
2022/10/20 04:02:32;;;;;;;0.00;0.00;;;;;;;10.22;100.00;98704.44;4829867;29;20240;-58
2022/10/20 04:04:59;;;;;;;0.00;0.00;;;;;;;10.21;100.00;98715.84;4811591;29;20240;-58
2022/10/20 04:07:25;;;;;;;0.00;0.00;;;;;;;10.13;100.00;98720.00;4814317;29;20257;-57
2022/10/20 04:09:52;;;;;;;0.00;0.00;;;;;;;10.10;100.00;98714.25;4813403;29;20245;-57
2022/10/20 04:12:20;;;;;;;0.00;0.00;;;;;;;10.02;100.00;98709.75;4812213;29;20248;-60
2022/10/20 04:14:47;;;;;;;0.00;0.00;;;;;;;9.97;100.00;98715.44;4811221;29;20245;-61
2022/10/20 04:17:14;;;;;;;0.00;0.00;;;;;;;9.96;100.00;98719.00;4813374;29;20716;-59
2022/10/20 04:19:41;;;;;;;0.00;0.00;;;;;;;10.00;100.00;98709.09;4811660;29;20598;-60
2022/10/20 04:22:07;;;;;;;0.00;0.00;;;;;;;9.96;100.00;98699.91;4807835;29;20232;-59
2022/10/20 04:24:34;;;;;;;0.00;0.00;;;;;;;9.93;100.00;98698.44;4811909;29;20248;-59
2022/10/20 04:27:01;;;;;;;0.00;0.00;;;;;;;9.95;100.00;98701.72;4812962;29;20302;-60
2022/10/20 04:29:28;;;;;;;0.00;0.00;;;;;;;9.90;100.00;98685.69;4813647;29;20257;-58
2022/10/20 04:31:55;;;;;;;0.00;0.00;;;;;;;9.85;100.00;98690.50;4816058;29;20241;-58
2022/10/20 04:34:22;;;;;;;0.00;0.00;;;;;;;9.77;100.00;98693.81;4825957;29;20248;-58
2022/10/20 04:36:49;;;;;;;0.00;0.00;;;;;;;9.75;100.00;98691.38;4814760;29;20244;-59
2022/10/20 04:39:15;;;;;;;0.00;0.00;;;;;;;9.70;100.00;98682.31;4813142;29;20288;-58
2022/10/20 04:41:45;;;;;;;0.00;0.00;;;;;;;9.70;100.00;98679.72;4814954;29;20254;-59
2022/10/20 04:44:11;;;;;;;0.00;0.00;;;;;;;9.66;100.00;98667.94;4813662;29;20247;-61
2022/10/20 04:46:39;;;;;;;0.00;0.00;;;;;;;9.65;100.00;98661.09;4815607;29;20235;-61
2022/10/20 04:49:06;;;;;;;0.00;0.00;;;;;;;9.63;100.00;98642.16;4811432;29;20249;-58
2022/10/20 04:51:32;;;;;;;0.00;0.00;;;;;;;9.67;100.00;98636.53;4813838;29;20256;-58
2022/10/20 04:53:59;;;;;;;0.00;0.00;;;;;;;9.68;100.00;98632.97;4813434;29;20228;-56
2022/10/20 04:56:25;;;;;;;0.00;0.00;;;;;;;9.69;100.00;98632.00;4812480;29;20305;-60
2022/10/20 04:58:54;;;;;;;0.00;0.00;;;;;;;9.67;100.00;98633.09;4814115;29;20240;-60
2022/10/20 05:01:23;;;;;;;0.00;0.00;;;;;;;9.69;100.00;98637.22;4811816;29;20252;-60
2022/10/20 05:03:51;;;;;;;0.00;0.00;;;;;;;9.75;100.00;98627.97;4814270;29;20251;-61
2022/10/20 05:06:19;;;;;;;0.00;0.00;;;;;;;9.73;100.00;98630.75;4810334;29;20294;-60
2022/10/20 05:08:48;;;;;;;0.00;0.00;;;;;;;9.74;100.00;98640.19;4813897;29;20308;-59
2022/10/20 05:11:16;;;;;;;0.00;0.00;;;;;;;9.76;100.00;98645.25;4808631;29;20293;-60
2022/10/20 05:13:43;;;;;;;0.00;0.00;;;;;;;9.77;100.00;98640.88;4816523;29;20231;-60
2022/10/20 05:16:10;;;;;;;0.00;0.00;;;;;;;9.85;100.00;98639.16;4808770;29;20833;-61
2022/10/20 05:18:37;;;;;;;0.00;0.00;;;;;;;9.87;100.00;98641.66;4814646;29;20247;-59
2022/10/20 05:21:09;;;;;;;0.00;0.00;;;;;;;9.88;100.00;98643.28;4810417;29;20244;-60
2022/10/20 05:23:37;;;;;;;0.00;0.00;;;;;;;9.89;100.00;98643.13;4813223;29;20305;-60
2022/10/20 05:26:04;;;;;;;0.00;0.00;;;;;;;9.87;100.00;98637.25;4826743;29;20761;-61
2022/10/20 05:28:31;;;;;;;0.00;0.00;;;;;;;9.81;100.00;98642.22;4813380;29;20254;-61
2022/10/20 05:31:01;;;;;;;0.00;0.00;;;;;;;9.79;100.00;98654.59;4814806;29;20901;-58
2022/10/20 05:33:28;;;;;;;0.00;0.00;;;;;;;9.76;100.00;98671.31;4813432;29;20243;-60
2022/10/20 05:35:54;;;;;;;0.00;0.00;;;;;;;9.73;100.00;98669.84;4800444;29;20236;-60
2022/10/20 05:38:22;;;;;;;0.00;0.00;;;;;;;9.75;100.00;98678.34;4799627;29;20249;-59
2022/10/20 05:40:49;;;;;;;0.00;0.00;;;;;;;9.74;100.00;98696.72;4813643;29;20293;-60
2022/10/20 05:43:16;;;;;;;0.00;0.00;;;;;;;9.73;100.00;98700.28;4810372;29;20239;-60
2022/10/20 05:45:42;;;;;;;0.00;0.00;;;;;;;9.73;100.00;98705.50;4815337;29;20406;-60
2022/10/20 05:48:09;;;;;;;0.00;0.00;;;;;;;9.77;100.00;98714.66;4814529;29;20240;-58
2022/10/20 05:50:35;;;;;;;0.00;0.00;;;;;;;9.74;100.00;98701.94;4818477;29;20239;-60
2022/10/20 05:53:02;;;;;;;0.00;0.00;;;;;;;9.75;100.00;98691.38;4808946;29;20231;-60
2022/10/20 05:55:30;;;;;;;0.00;0.00;;;;;;;9.78;100.00;98690.25;4826643;29;20875;-60
2022/10/20 05:57:56;;;;;;;0.00;0.00;;;;;;;9.80;100.00;98677.88;4811972;29;20243;-60
2022/10/20 06:00:29;;;;;;;0.00;0.00;;;;;;;9.83;100.00;98667.16;4816498;29;20240;-60
2022/10/20 06:02:56;;;;;;;0.00;0.00;;;;;;;9.87;100.00;98665.13;4814661;29;20248;-60
2022/10/20 06:05:23;;;;;;;0.00;0.00;;;;;;;9.93;100.00;98655.88;4815097;29;20333;-59
2022/10/20 06:07:49;;;;;;;0.00;0.00;;;;;;;9.89;100.00;98648.34;4816884;29;20236;-61
2022/10/20 06:10:16;;;;;;;0.00;0.00;;;;;;;9.92;100.00;98649.03;4816076;29;20247;-61
2022/10/20 06:12:44;;;;;;;0.00;0.00;;;;;;;9.89;100.00;98655.34;4815821;29;20708;-61
2022/10/20 06:15:10;;;;;;;0.00;0.00;;;;;;;9.84;100.00;98654.97;4826097;29;20617;-57
2022/10/20 06:17:37;;;;;;;0.00;0.00;;;;;;;9.77;100.00;98651.31;4815611;29;20784;-60
2022/10/20 06:20:04;;;;;;;0.00;0.00;;;;;;;9.69;100.00;98665.88;4813351;29;20306;-57
2022/10/20 06:22:31;;;;;;;0.00;0.00;;;;;;;9.67;100.00;98666.97;4815482;29;20886;-59
2022/10/20 06:24:57;;;;;;;0.00;0.00;;;;;;;9.64;100.00;98668.09;4815965;29;20708;-61
2022/10/20 06:27:24;;;;;;;0.00;0.00;;;;;;;9.65;100.00;98674.13;4809358;29;20692;-60
2022/10/20 06:29:53;;;;;;;0.00;0.00;;;;;;;9.70;100.00;98682.31;4814431;29;20659;-60
2022/10/20 06:32:20;;;;;;;0.00;0.00;;;;;;;9.67;100.00;98688.66;4813445;29;20669;-60
2022/10/20 06:34:46;;;;;;;0.00;0.00;;;;;;;9.76;100.00;98692.19;4828576;29;20744;-60
2022/10/20 06:37:13;;;;;;;0.00;0.00;;;;;;;9.81;100.00;98705.59;4814065;29;20240;-61
2022/10/20 06:39:39;;;;;;;0.00;0.00;;;;;;;9.89;100.00;98708.31;4815008;29;20234;-60
2022/10/20 06:42:06;;;;;;;0.00;0.00;;;;;;;9.99;100.00;98713.50;4806097;29;20305;-60
2022/10/20 06:44:33;;;;;;;0.00;0.00;;;;;;;10.04;100.00;98719.09;4813166;29;20256;-61
2022/10/20 06:47:01;;;;;;;0.00;0.00;;;;;;;10.13;100.00;98719.16;4811075;29;20251;-59
2022/10/20 06:49:27;;;;;;;0.00;0.00;;;;;;;10.16;100.00;98708.44;4815673;29;20236;-60
2022/10/20 06:51:54;;;;;;;0.00;0.00;;;;;;;10.27;100.00;98695.19;4816130;29;20248;-60
2022/10/20 06:54:20;;;;;;;0.00;0.00;;;;;;;10.19;100.00;98690.72;4810783;29;20611;-61
2022/10/20 06:56:47;;;;;;;0.00;0.00;;;;;;;10.29;100.00;98682.81;4813875;29;20281;-61
2022/10/20 06:59:13;;;;;;;0.00;0.00;;;;;;;10.43;100.00;98686.75;4812329;29;20249;-60
2022/10/20 07:01:41;;;;;;;0.00;0.00;;;;;;;10.47;100.00;98690.72;4811726;29;20237;-62
2022/10/20 07:04:12;;;;;;;0.00;0.00;;;;;;;10.53;100.00;98691.91;4813628;29;20244;-62
2022/10/20 07:06:41;;;;;;;0.00;0.00;;;;;;;10.67;100.00;98692.34;4816194;29;20829;-62
2022/10/20 07:09:11;;;;;;;0.00;0.00;;;;;;;10.67;100.00;98695.78;4807810;29;20577;-62
2022/10/20 07:11:38;;;;;;;0.00;0.00;;;;;;;10.68;100.00;98707.03;4815081;29;20337;-62
2022/10/20 07:14:05;;;;;;;0.00;0.00;;;;;;;10.71;100.00;98696.31;4812500;29;20241;-62
2022/10/20 07:16:34;;;;;;;0.00;0.00;;;;;;;10.78;100.00;98677.25;4816338;29;20248;-62
2022/10/20 07:19:02;;;;;;;0.00;0.00;;;;;;;10.89;100.00;98681.44;4811900;29;20298;-62
2022/10/20 07:21:31;;;;;;;0.00;0.00;;;;;;;10.98;100.00;98671.06;4831125;29;20574;-61
2022/10/20 07:23:57;;;;;;;0.00;0.00;;;;;;;11.05;100.00;98670.28;4826201;29;20252;-63
2022/10/20 07:26:26;;;;;;;0.00;0.00;;;;;;;11.14;100.00;98673.75;4830218;29;20256;-62
2022/10/20 07:28:56;;;;;;;0.00;0.00;;;;;;;11.17;100.00;98677.88;4812341;29;20871;-62
2022/10/20 07:31:25;;;;;;;0.00;0.00;;;;;;;11.06;100.00;98676.34;4812774;29;20802;-62
2022/10/20 07:33:52;;;;;;;0.00;0.00;;;;;;;11.16;100.00;98676.25;4812230;29;20257;-62
2022/10/20 07:36:24;;;;;;;0.00;0.00;;;;;;;11.34;100.00;98694.47;4809288;29;20241;-61
2022/10/20 07:38:54;;;;;;;0.00;0.00;;;;;;;11.36;100.00;98690.75;4814516;29;20299;-62
2022/10/20 07:41:21;;;;;;;0.00;0.00;;;;;;;11.46;100.00;98688.00;4812488;29;20237;-60
2022/10/20 07:43:48;;;;;;;0.00;0.00;;;;;;;11.58;100.00;98682.50;4815209;29;20287;-62
2022/10/20 07:46:15;;;;;;;0.00;0.00;;;;;;;11.62;100.00;98678.63;4811458;29;20321;-63
2022/10/20 07:48:41;;;;;;;0.00;0.00;;;;;;;11.77;100.00;98679.66;4828880;29;20253;-61
2022/10/20 07:51:25;;;;;;;0.00;0.00;;;;;;;11.91;100.00;98685.28;4808081;29;20250;-61
2022/10/20 07:53:56;;;;;;;0.00;0.00;;;;;;;11.97;100.00;98679.41;4815258;29;20248;-60
2022/10/20 07:56:23;;;;;;;0.00;0.00;;;;;;;12.01;100.00;98683.38;4816129;29;20675;-60
2022/10/20 07:58:49;;;;;;;0.00;0.00;;;;;;;12.05;100.00;98692.56;4819425;29;20243;-61
2022/10/20 08:01:16;;;;;;;0.00;0.00;;;;;;;12.06;100.00;98703.81;4813968;29;20253;-61
2022/10/20 08:03:43;;;;;;;0.00;0.00;;;;;;;12.13;100.00;98733.63;4813086;29;20230;-60
2022/10/20 08:06:10;;;;;;;0.00;0.00;;;;;;;11.81;100.00;98745.53;4814712;29;20265;-60
2022/10/20 08:08:36;;;;;;;0.00;0.00;;;;;;;11.80;100.00;98764.81;4813834;29;20626;-61
2022/10/20 08:11:07;;;;;;;0.00;0.00;;;;;;;11.78;100.00;98783.31;4810277;29;20243;-61
2022/10/20 08:13:34;;;;;;;0.00;0.00;;;;;;;11.66;100.00;98781.91;4815792;29;20291;-60
2022/10/20 08:16:00;;;;;;;0.00;0.00;;;;;;;11.58;100.00;98781.84;4811604;29;20246;-62
2022/10/20 08:18:27;;;;;;;0.00;0.00;;;;;;;11.30;100.00;98790.66;4813223;29;20240;-61
2022/10/20 08:20:54;;;;;;;0.00;0.00;;;;;;;11.32;100.00;98793.94;4811292;29;20258;-61
2022/10/20 08:23:20;;;;;;;0.00;0.00;;;;;;;11.22;100.00;98793.19;4814825;29;20269;-61
2022/10/20 08:25:47;;;;;;;0.00;0.00;;;;;;;11.29;100.00;98801.25;4816661;29;20246;-62
2022/10/20 08:28:15;;;;;;;0.00;0.00;;;;;;;11.23;100.00;98798.25;4809792;29;20300;-60
2022/10/20 08:30:41;;;;;;;0.00;0.00;;;;;;;11.33;100.00;98802.59;4815671;29;20328;-62
2022/10/20 08:33:08;;;;;;;0.00;0.00;;;;;;;11.48;100.00;98797.66;4811081;29;20302;-62
2022/10/20 08:35:34;;;;;;;0.00;0.00;;;;;;;11.30;100.00;98795.03;4813311;29;20298;-61
2022/10/20 08:38:01;;;;;;;0.00;0.00;;;;;;;11.16;100.00;98793.81;4810672;29;20655;-61
2022/10/20 08:40:30;;;;;;;0.00;0.00;;;;;;;11.42;100.00;98800.88;4814532;29;20752;-61
2022/10/20 08:42:57;;;;;;;0.00;0.00;;;;;;;11.67;100.00;98794.81;4813329;29;20241;-61
2022/10/20 08:45:28;;;;;;;0.00;0.00;;;;;;;11.66;100.00;98779.31;4815018;29;20824;-59
2022/10/20 08:47:57;;;;;;;0.00;0.00;;;;;;;11.99;100.00;98786.50;4815517;29;20298;-61
2022/10/20 08:50:26;;;;;;;0.00;0.00;;;;;;;12.05;100.00;98776.28;4805870;29;20310;-61
2022/10/20 08:52:56;;;;;;;0.00;0.00;;;;;;;12.24;100.00;98771.75;4812425;29;20577;-60
2022/10/20 08:55:27;;;;;;;0.00;0.00;;;;;;;12.50;100.00;98770.84;4813383;29;20299;-60
2022/10/20 08:57:58;;;;;;;0.00;0.00;;;;;;;12.79;100.00;98767.81;4814281;29;20330;-61
2022/10/20 09:00:27;;;;;;;0.00;0.00;;;;;;;12.94;100.00;98760.13;4813773;29;20230;-61
2022/10/20 09:02:54;;;;;;;0.00;0.00;;;;;;;13.21;100.00;98752.94;4813823;29;20694;-61
2022/10/20 09:05:25;;;;;;;0.00;0.00;;;;;;;13.32;100.00;98756.19;4815543;29;20249;-61
2022/10/20 09:07:52;;;;;;;0.00;0.00;;;;;;;13.37;100.00;98753.88;4813574;29;20244;-61
2022/10/20 09:10:29;;;;;;;0.00;0.00;;;;;;;13.46;100.00;98752.13;4825064;29;20294;-62
2022/10/20 09:12:56;;;;;;;0.00;0.00;;;;;;;13.76;100.00;98749.78;4814611;29;20314;-60
2022/10/20 09:15:25;;;;;;;0.00;0.00;;;;;;;13.94;100.00;98749.53;4814584;29;20249;-62
2022/10/20 09:17:55;;;;;;;0.00;0.00;;;;;;;14.28;100.00;98757.09;4817671;29;20249;-61
2022/10/20 09:20:25;;;;;;;0.00;0.00;;;;;;;14.22;96.21;98757.78;4812741;29;20234;-61
2022/10/20 09:22:51;;;;;;;0.00;0.00;;;;;;;14.38;97.24;98748.19;4818880;29;20246;-62
2022/10/20 09:25:22;;;;;;;0.00;0.00;;;;;;;14.51;94.97;98752.88;4814899;29;20247;-61
2022/10/20 09:27:49;;;;;;;0.00;0.00;;;;;;;14.52;95.76;98763.22;4815043;29;20266;-61
2022/10/20 09:30:18;;;;;;;0.00;0.00;;;;;;;14.44;95.81;98761.44;4813338;29;20241;-60
2022/10/20 09:32:46;;;;;;;0.00;0.00;;;;;;;14.53;96.43;98774.53;4817070;29;20246;-61
2022/10/20 09:35:25;;;;;;;0.00;0.00;;;;;;;14.41;98.75;98759.16;4814652;29;20280;-61
2022/10/20 09:38:16;;;;;;;0.00;0.00;;;;;;;14.69;97.57;98777.09;4819217;29;20231;-61
2022/10/20 09:40:44;;;;;;;0.00;0.00;;;;;;;14.66;95.18;98772.16;4810372;29;20293;-61
2022/10/20 09:43:16;;;;;;;0.00;0.00;;;;;;;14.60;96.52;98771.06;4810429;29;20751;-62
2022/10/20 09:45:52;;;;;;;0.00;0.00;;;;;;;14.59;96.94;98761.53;4816338;29;20243;-61
2022/10/20 09:48:24;;;;;;;0.00;0.00;;;;;;;14.80;98.50;98748.78;4813751;29;20303;-62
2022/10/20 09:50:54;;;;;;;0.00;0.00;;;;;;;15.01;95.74;98746.34;4815720;29;20778;-62
2022/10/20 09:53:26;;;;;;;0.00;0.00;;;;;;;15.06;96.79;98737.91;4814959;29;20243;-62
2022/10/20 09:55:53;;;;;;;0.00;0.00;;;;;;;15.10;95.13;98739.19;4815630;29;20292;-62
2022/10/20 09:58:24;;;;;;;0.00;0.00;;;;;;;15.04;94.65;98739.88;4815550;29;21680;-61
2022/10/20 10:01:00;;;;;;;0.00;0.00;;;;;;;15.20;92.57;98723.97;4818559;29;20236;-61
2022/10/20 10:03:27;;;;;;;0.00;0.00;;;;;;;15.07;93.70;98720.34;4814218;29;20238;-62
2022/10/20 10:05:56;;;;;;;0.00;0.00;;;;;;;14.94;95.36;98705.97;4813417;29;20312;-62
2022/10/20 10:08:25;;;;;;;0.00;0.00;;;;;;;14.95;96.13;98685.75;4812417;29;20246;-62
2022/10/20 10:11:00;;;;;;;0.00;0.00;;;;;;;14.80;99.05;98699.69;4830122;29;20244;-61
2022/10/20 10:13:30;;;;;;;0.00;0.00;;;;;;;14.87;98.78;98707.69;4812505;29;20230;-61
2022/10/20 10:16:02;;;;;;;0.00;0.00;;;;;;;15.03;98.54;98719.84;4817291;29;20235;-61
2022/10/20 10:18:29;;;;;;;0.00;0.00;;;;;;;15.46;96.85;98716.66;4813165;29;20746;-61
2022/10/20 10:21:04;;;;;;;0.00;0.00;;;;;;;16.03;92.40;98731.00;4815870;29;20335;-61
2022/10/20 10:23:35;;;;;;;0.00;0.00;;;;;;;15.97;92.76;98758.06;4816036;29;20760;-61
2022/10/20 10:26:02;;;;;;;0.00;0.00;;;;;;;15.73;93.07;98767.88;4813672;29;20345;-61
2022/10/20 10:28:37;;;;;;;0.00;0.00;;;;;;;16.04;93.35;98772.16;4823581;29;20221;-61
2022/10/20 10:31:25;;;;;;;0.00;0.00;;;;;;;15.89;93.58;98761.63;4810476;29;20330;-61
2022/10/20 10:33:56;;;;;;;0.00;0.00;;;;;;;16.01;91.17;98754.06;4812900;29;20604;-61
2022/10/20 10:36:32;;;;;;;0.00;0.00;;;;;;;15.44;94.44;98727.38;4817481;29;20310;-60
2022/10/20 10:38:59;;;;;;;0.00;0.00;;;;;;;15.05;98.27;98704.72;4815126;29;20819;-60
2022/10/20 10:41:37;;;;;;;0.00;0.00;;;;;;;15.63;97.07;98699.69;4808548;29;20277;-62
2022/10/20 10:44:13;;;;;;;0.00;0.00;;;;;;;16.02;90.38;98704.88;4813076;29;20769;-61
2022/10/20 10:46:43;;;;;;;0.00;0.00;;;;;;;16.06;89.71;98693.00;4814911;29;20598;-61
2022/10/20 10:49:46;;;;;;;0.00;0.00;;;;;;;16.05;89.17;98696.63;4810647;29;20329;-60
2022/10/20 10:52:30;;;;;;;0.00;0.00;;;;;;;16.06;91.08;98693.78;4801806;29;20252;-61
2022/10/20 10:55:05;;;;;;;0.00;0.00;;;;;;;15.94;92.57;98687.34;4818646;29;20243;-61
2022/10/20 10:57:40;;;;;;;0.00;0.00;;;;;;;16.04;92.92;98681.81;4817378;29;20248;-62
2022/10/20 11:00:14;;;;;;;0.00;0.00;;;;;;;16.28;90.69;98682.50;4810159;29;20622;-62
2022/10/20 11:03:00;;;;;;;0.00;0.00;;;;;;;16.15;90.34;98686.63;4811604;29;20300;-65
2022/10/20 11:05:56;;;;;;;0.00;0.00;;;;;;;16.28;90.12;98680.66;4813848;29;20716;-61
2022/10/20 11:08:34;;;;;;;0.00;0.00;;;;;;;16.20;90.29;98689.50;4812167;29;20237;-61
2022/10/20 11:11:15;;;;;;;0.00;0.00;;;;;;;16.02;90.41;98703.06;4810958;29;20263;-61
2022/10/20 11:13:48;;;;;;;0.00;0.00;;;;;;;15.82;92.90;98702.78;4815646;29;20576;-61
2022/10/20 11:16:31;;;;;;;0.00;0.00;;;;;;;15.78;93.39;98712.88;4808830;29;20304;-61
2022/10/20 11:19:33;;;;;;;0.00;0.00;;;;;;;15.54;94.37;98706.06;4815941;29;20239;-62
2022/10/20 11:22:15;;;;;;;0.00;0.00;;;;;;;15.40;97.32;98705.06;4814635;29;20249;-61
2022/10/20 11:24:51;;;;;;;0.00;0.00;;;;;;;15.25;98.41;98702.41;4813371;29;20280;-62
2022/10/20 11:27:22;;;;;;;0.00;0.00;;;;;;;15.07;99.54;98708.00;4813373;29;20643;-62
2022/10/20 11:29:53;;;;;;;0.00;0.00;;;;;;;15.29;99.32;98708.97;4830483;29;20244;-62
2022/10/20 11:32:27;;;;;;;0.00;0.00;;;;;;;15.29;99.83;98702.88;4811453;29;20241;-62
2022/10/20 11:35:03;;;;;;;0.00;0.00;;;;;;;15.24;99.09;98698.16;4816210;29;20748;-61
2022/10/20 11:37:35;;;;;;;0.00;0.00;;;;;;;15.41;98.19;98688.28;4812291;29;20291;-62
2022/10/20 11:40:16;;;;;;;0.00;0.00;;;;;;;15.29;98.52;98682.66;4817597;29;20234;-62
2022/10/20 11:42:48;;;;;;;0.00;0.00;;;;;;;15.46;97.80;98678.03;4816219;29;20247;-61